Observations for SOUTHEND-ON-SEA, United Kingdom (EGMC)

EGMC 191950Z 25003KT CAVOK 07/06 Q1004  
EGMC 191920Z 26004KT CAVOK 07/07 Q1003  
EGMC 191850Z 29003KT CAVOK 07/06 Q1003  
EGMC 191820Z 27003KT CAVOK 08/07 Q1003  
EGMC 191750Z 21003KT CAVOK 09/07 Q1002  
EGMC 191720Z 23005KT 9999 FEW040 11/07 Q1002
EGMC 191650Z 25003KT 9999 FEW040 11/06 Q1002
EGMC 191620Z 28004KT 9999 FEW040 12/07 Q1002
EGMC 191550Z 25009KT 9999 FEW044 14/06 Q1001
EGMC 191520Z 25011KT 9999 FEW044 14/06 Q1001
EGMC 191450Z 24013KT 9999 FEW037 14/06 Q1001
EGMC 191420Z 24013KT 9999 FEW037 15/07 Q1001
EGMC 191350Z 24013KT 9999 FEW030 14/07 Q1001
EGMC 191320Z 23014KT 9999 FEW030 SCT033 15/08 Q1000 
EGMC 191250Z 23013KT 9999 FEW028 SCT041 14/08 Q1000 
EGMC 191220Z 23013KT 9999 FEW024 14/08 Q1000
EGMC 191150Z 23014KT 9999 FEW024 14/08 Q1000
EGMC 191120Z 22012KT 9999 FEW018 12/08 Q1000
EGMC 191050Z 22012KT 9999 FEW008 12/09 Q1000
EGMC 191020Z 21011KT 9999 FEW008 12/09 Q1000
EGMC 190950Z 21010KT 9999 FEW008 11/09 Q1000
EGMC 190920Z 22011KT 9999 FEW008 11/09 Q1000
EGMC 190850Z 21010KT 9999 FEW008 11/09 Q1000
EGMC 190820Z 21010KT CAVOK 11/09 Q0999  
EGMC 190750Z 21011KT 9999 FEW023 11/09 Q0999
EGMC 190720Z 20011KT 9999 FEW012 10/09 Q0999
EGMC 190650Z 20010KT CAVOK 10/09 Q0999  
EGMC 190620Z 21009KT CAVOK 10/09 Q0998  
EGMC 190550Z 21011KT CAVOK 10/09 Q0999  
EGMC 190520Z 20011KT CAVOK 11/09 Q0999  
EGMC 190450Z 21012KT CAVOK 11/09 Q0999  
EGMC 190420Z 20012KT CAVOK 11/09 Q0999  
EGMC 190350Z 21011KT CAVOK 11/09 Q0999  
EGMC 190250Z 20008KT CAVOK 11/09 Q0999  
EGMC 190150Z 19012KT 9999 -SHRA FEW032 11/09 Q0999  
EGMC 190120Z 20012KT CAVOK 11/09 Q0999  
EGMC 190020Z 22010KT 9999 FEW027 SCT032 11/09 Q0999 
EGMC 182320Z 19011KT CAVOK 11/08 Q1000  
EGMC 182250Z 20014KT CAVOK 12/08 Q1000  
EGMC 182220Z 20010KT CAVOK 12/09 Q1000  
EGMC 182150Z 19009KT CAVOK 11/09 Q1000  
EGMC 182120Z 19009KT CAVOK 11/09 Q1000  
EGMC 182050Z 19009KT CAVOK 11/09 Q1000  
EGMC 182020Z 20012KT CAVOK 11/09 Q1000  
EGMC 181950Z 20012KT CAVOK 12/09 Q1000  
EGMC 181920Z 20015KT CAVOK 12/09 Q1000